Suvarnabhumi Airport

VTBS | BKK

Bangkok , Samut-Prakan , Thailand

Thursday, October 24th, 2019 | 12:28

Weather

VTBS 240500Z VRB06KT 9999 FEW020 34/24 Q1010 NOSIG

Charts

No Charts Available

Gates

124 Available

Runways

2 Available

Events

No events for this airport


New event